createdAt,value
2018-11-23T00:02:03.477Z,39.17
2018-11-23T00:04:33.228Z,37.93
2018-11-23T00:07:02.904Z,33.10
2018-11-23T00:09:39.026Z,31.97
2018-11-23T00:12:08.768Z,34.73
2018-11-23T00:14:38.783Z,42.17
2018-11-23T00:17:08.570Z,34.53
2018-11-23T00:19:38.376Z,33.70
2018-11-23T00:22:08.547Z,36.80
2018-11-23T00:24:38.259Z,29.73
2018-11-23T00:27:08.025Z,34.17
2018-11-23T00:29:39.796Z,29.40
2018-11-23T00:32:09.479Z,37.80
2018-11-23T00:34:39.323Z,32.97
2018-11-23T00:37:09.107Z,28.83
2018-11-23T00:39:38.787Z,32.17
2018-11-23T00:42:08.587Z,34.47
2018-11-23T00:44:38.153Z,30.97
2018-11-23T00:47:07.890Z,34.37
2018-11-23T00:49:37.707Z,26.53
2018-11-23T00:52:07.899Z,29.00
2018-11-23T00:54:37.568Z,34.73
2018-11-23T00:57:07.336Z,30.20
2018-11-23T00:59:37.666Z,30.70
2018-11-23T01:02:08.757Z,32.33
2018-11-23T01:04:39.191Z,26.40
2018-11-23T01:07:31.941Z,24.77
2018-11-23T01:10:01.756Z,31.80
2018-11-23T01:12:31.459Z,27.77
2018-11-23T01:15:01.213Z,30.33
2018-11-23T01:17:30.901Z,36.40
2018-11-23T01:20:00.563Z,29.70
2018-11-23T01:22:30.368Z,29.23
2018-11-23T01:25:00.308Z,32.07
2018-11-23T01:27:30.038Z,28.10
2018-11-23T01:29:59.723Z,33.23
2018-11-23T01:32:29.440Z,28.53
2018-11-23T01:34:59.116Z,25.53
2018-11-23T01:37:28.809Z,29.80
2018-11-23T01:39:58.535Z,24.03
2018-11-23T01:42:28.287Z,28.50
2018-11-23T01:44:58.069Z,28.67
2018-11-23T01:47:27.718Z,23.10
2018-11-23T01:49:57.391Z,25.73
2018-11-23T01:52:27.180Z,24.23
2018-11-23T01:55:16.318Z,23.83
2018-11-23T01:57:46.791Z,27.93
2018-11-23T02:00:27.835Z,26.17
2018-11-23T02:02:57.979Z,21.27
2018-11-23T02:05:27.729Z,23.80
2018-11-23T02:07:57.504Z,23.50
2018-11-23T02:10:27.277Z,27.97
2018-11-23T02:12:57.047Z,25.40
2018-11-23T02:15:26.743Z,23.10
2018-11-23T02:17:56.507Z,27.87
2018-11-23T02:20:26.200Z,28.77
2018-11-23T02:22:55.959Z,22.73
2018-11-23T02:25:25.714Z,59.70
2018-11-23T02:27:55.755Z,24.50
2018-11-23T02:30:26.626Z,25.10
2018-11-23T02:32:56.296Z,25.93
2018-11-23T02:35:25.984Z,23.53
2018-11-23T02:37:55.664Z,34.80
2018-11-23T02:40:25.344Z,25.30
2018-11-23T02:42:55.116Z,25.37
2018-11-23T02:45:24.919Z,25.97
2018-11-23T02:47:54.675Z,28.20
2018-11-23T02:50:24.377Z,29.23
2018-11-23T02:52:54.159Z,22.57
2018-11-23T02:55:23.875Z,24.70
2018-11-23T02:57:53.641Z,23.07
2018-11-23T03:00:23.834Z,31.70
2018-11-23T03:02:53.535Z,26.60
2018-11-23T03:05:24.283Z,24.60
2018-11-23T03:07:53.972Z,24.37
2018-11-23T03:10:23.678Z,22.70
2018-11-23T03:13:22.296Z,25.87
2018-11-23T03:15:52.040Z,23.53
2018-11-23T03:18:21.709Z,25.20
2018-11-23T03:20:51.473Z,30.00
2018-11-23T03:23:21.236Z,26.97
2018-11-23T03:25:50.931Z,23.60
2018-11-23T03:28:20.701Z,27.63
2018-11-23T03:30:50.460Z,29.47
2018-11-23T03:33:20.553Z,28.97
2018-11-23T03:35:50.271Z,27.87
2018-11-23T03:38:19.992Z,29.33
2018-11-23T03:40:50.264Z,29.57
2018-11-23T03:43:20.288Z,25.73
2018-11-23T03:45:49.947Z,27.50
2018-11-23T03:48:19.648Z,33.97
2018-11-23T03:50:49.375Z,28.27
2018-11-23T03:53:18.988Z,32.70
2018-11-23T03:55:48.696Z,23.17
2018-11-23T03:58:18.356Z,27.63
2018-11-23T04:01:00.236Z,28.50
2018-11-23T04:03:30.320Z,27.10
2018-11-23T04:05:59.983Z,28.40
2018-11-23T04:08:29.779Z,32.33
2018-11-23T04:10:59.484Z,27.20
2018-11-23T04:13:29.096Z,28.30
2018-11-23T04:15:58.911Z,19.50
2018-11-23T04:18:28.552Z,20.13
2018-11-23T04:21:22.352Z,20.97
2018-11-23T04:23:51.986Z,22.47
2018-11-23T04:26:24.808Z,22.70
2018-11-23T04:28:51.403Z,24.03
2018-11-23T04:31:21.134Z,19.63
2018-11-23T04:33:50.871Z,23.03
2018-11-23T04:36:20.563Z,20.60
2018-11-23T04:38:50.280Z,25.13
2018-11-23T04:41:20.017Z,24.93
2018-11-23T04:43:49.991Z,21.87
2018-11-23T04:46:19.736Z,33.00
2018-11-23T04:48:49.455Z,27.07
2018-11-23T04:51:19.187Z,29.83
2018-11-23T04:53:49.140Z,28.03
2018-11-23T04:56:30.359Z,36.93
2018-11-23T04:59:00.296Z,23.83
2018-11-23T05:01:30.012Z,20.37
2018-11-23T05:04:05.589Z,19.90
2018-11-23T05:06:35.651Z,20.50
2018-11-23T05:09:07.591Z,24.03
2018-11-23T05:11:37.272Z,24.93
2018-11-23T05:14:07.035Z,26.87
2018-11-23T05:16:36.768Z,27.07
2018-11-23T05:19:06.835Z,25.10
2018-11-23T05:21:36.569Z,42.43
2018-11-23T05:24:06.532Z,25.20
2018-11-23T05:26:36.191Z,24.57
2018-11-23T05:29:06.194Z,19.47
2018-11-23T05:31:35.868Z,23.23
2018-11-23T05:34:05.763Z,24.97
2018-11-23T05:36:40.072Z,19.20
2018-11-23T05:39:10.592Z,29.00
2018-11-23T05:41:41.287Z,21.37
2018-11-23T05:44:14.785Z,31.77
2018-11-23T05:46:44.436Z,31.63
2018-11-23T05:49:14.057Z,43.47
2018-11-23T05:51:43.853Z,21.23
2018-11-23T05:54:13.608Z,23.83
2018-11-23T05:56:43.383Z,31.80
2018-11-23T05:59:13.043Z,26.00
2018-11-23T06:01:42.894Z,19.20
2018-11-23T06:04:43.012Z,21.40
2018-11-23T06:07:13.091Z,34.63
2018-11-23T06:09:42.779Z,18.33
2018-11-23T06:12:12.447Z,27.10
2018-11-23T06:14:43.263Z,20.77
2018-11-23T06:17:13.047Z,26.60
2018-11-23T06:19:43.490Z,26.30
2018-11-23T06:22:31.419Z,24.33
2018-11-23T06:25:01.320Z,28.83
2018-11-23T06:27:31.079Z,27.10
2018-11-23T06:30:06.796Z,23.27
2018-11-23T06:32:53.273Z,31.20
2018-11-23T06:35:23.597Z,31.73
2018-11-23T06:37:57.932Z,38.83
2018-11-23T06:40:27.667Z,38.20
2018-11-23T06:42:57.684Z,25.27
2018-11-23T06:45:27.542Z,26.47
2018-11-23T06:47:57.240Z,22.10
2018-11-23T06:50:26.960Z,22.67
2018-11-23T06:52:56.623Z,21.30
2018-11-23T06:55:27.477Z,24.80
2018-11-23T06:57:57.079Z,24.70
2018-11-23T07:00:26.797Z,24.53
2018-11-23T07:02:59.223Z,22.93
2018-11-23T07:05:26.287Z,21.83
2018-11-23T07:07:56.093Z,22.80
2018-11-23T07:10:25.765Z,20.03
2018-11-23T07:12:55.544Z,25.40
2018-11-23T07:15:25.311Z,19.07
2018-11-23T07:17:55.903Z,14.87
2018-11-23T07:20:25.603Z,18.23
2018-11-23T07:22:55.318Z,19.03
2018-11-23T07:25:25.014Z,19.80
2018-11-23T07:27:54.696Z,18.43
2018-11-23T07:30:26.084Z,19.77
2018-11-23T07:32:56.013Z,17.70
2018-11-23T07:35:25.684Z,17.83
2018-11-23T07:37:55.536Z,22.70
2018-11-23T07:40:44.120Z,17.53
2018-11-23T07:43:19.055Z,16.60
2018-11-23T07:45:48.714Z,18.53
2018-11-23T07:48:18.416Z,14.90
2018-11-23T07:50:48.147Z,18.50
2018-11-23T07:53:17.965Z,16.57
2018-11-23T07:55:47.632Z,17.50
2018-11-23T07:58:17.398Z,19.27
2018-11-23T08:00:47.051Z,19.17
2018-11-23T08:03:16.753Z,21.23
2018-11-23T08:05:46.452Z,20.10
2018-11-23T08:08:16.205Z,21.70
2018-11-23T08:10:44.943Z,18.83
2018-11-23T08:13:14.628Z,16.80
2018-11-23T08:15:44.349Z,18.13
2018-11-23T08:18:14.073Z,18.90
2018-11-23T08:20:43.751Z,18.67
2018-11-23T08:23:13.409Z,20.87
2018-11-23T08:25:43.780Z,16.17
2018-11-23T08:28:13.470Z,19.77
2018-11-23T08:30:43.175Z,21.53
2018-11-23T08:33:12.871Z,16.83
2018-11-23T08:35:42.592Z,16.43
2018-11-23T08:38:12.374Z,18.13
2018-11-23T08:40:42.044Z,18.70
2018-11-23T08:43:23.670Z,17.43
2018-11-23T08:45:53.456Z,16.70
2018-11-23T08:48:23.361Z,17.00
2018-11-23T08:50:53.100Z,17.93
2018-11-23T08:53:30.996Z,19.30
2018-11-23T08:56:00.700Z,17.00
2018-11-23T08:58:30.347Z,18.20
2018-11-23T09:01:00.128Z,19.43
2018-11-23T09:03:29.828Z,17.83
2018-11-23T09:05:59.572Z,15.90
2018-11-23T09:08:29.267Z,18.20
2018-11-23T09:10:58.931Z,15.83
2018-11-23T09:13:29.333Z,16.87
2018-11-23T09:15:58.968Z,13.53
2018-11-23T09:18:28.723Z,16.83
2018-11-23T09:20:59.097Z,17.30
2018-11-23T09:23:28.808Z,16.33
2018-11-23T09:25:58.524Z,16.33
2018-11-23T09:28:28.228Z,16.90
2018-11-23T09:30:57.991Z,16.37
2018-11-23T09:33:27.767Z,16.37
2018-11-23T09:35:57.455Z,15.27
2018-11-23T09:38:27.176Z,16.27
2018-11-23T09:40:57.370Z,15.70
2018-11-23T09:43:27.037Z,17.93
2018-11-23T09:45:56.650Z,17.83
2018-11-23T09:48:26.443Z,16.47
2018-11-23T09:50:56.035Z,27.40
2018-11-23T09:53:26.392Z,17.83
2018-11-23T09:55:56.224Z,15.50
2018-11-23T09:58:26.344Z,16.20
2018-11-23T10:00:56.073Z,14.10
2018-11-23T10:03:25.742Z,21.03
2018-11-23T10:05:55.456Z,15.10
2018-11-23T10:08:25.210Z,16.03
2018-11-23T10:10:54.944Z,16.00
2018-11-23T10:13:24.743Z,15.83
2018-11-23T10:18:56.667Z,16.00
2018-11-23T10:21:26.483Z,15.67
2018-11-23T10:23:56.232Z,12.83
2018-11-23T10:26:25.907Z,16.03
2018-11-23T10:28:55.664Z,17.33
2018-11-23T10:31:25.432Z,15.40
2018-11-23T10:33:55.149Z,17.60
2018-11-23T10:36:24.824Z,17.00
2018-11-23T10:38:54.501Z,14.10
2018-11-23T10:41:24.343Z,14.37
2018-11-23T10:43:54.010Z,16.50
2018-11-23T10:46:24.331Z,15.87
2018-11-23T10:48:54.168Z,15.33
2018-11-23T10:51:23.820Z,16.43
2018-11-23T10:53:53.568Z,14.27
2018-11-23T10:56:23.279Z,15.20
2018-11-23T10:58:52.999Z,14.50
2018-11-23T11:01:27.774Z,15.57
2018-11-23T11:04:00.989Z,13.87
2018-11-23T11:06:35.947Z,14.50
2018-11-23T11:09:08.472Z,13.63
2018-11-23T11:11:38.409Z,12.90
2018-11-23T11:14:08.712Z,17.23
2018-11-23T11:16:38.362Z,14.73
2018-11-23T11:19:08.384Z,16.80
2018-11-23T11:21:38.138Z,14.57
2018-11-23T11:24:07.830Z,16.07
2018-11-23T11:26:37.564Z,14.70
2018-11-23T11:29:07.616Z,15.50
2018-11-23T11:31:37.339Z,14.60
2018-11-23T11:34:07.390Z,13.67
2018-11-23T11:36:37.087Z,13.23
2018-11-23T11:39:11.171Z,14.43
2018-11-23T11:41:41.132Z,12.87
2018-11-23T11:44:10.790Z,14.23
2018-11-23T11:46:40.448Z,12.93
2018-11-23T11:49:10.111Z,11.87
2018-11-23T11:51:40.060Z,22.93
2018-11-23T11:54:09.814Z,13.13
2018-11-23T11:56:39.495Z,13.60
2018-11-23T11:59:09.222Z,12.70
2018-11-23T12:01:38.996Z,13.20
2018-11-23T12:04:08.680Z,13.00
2018-11-23T12:06:38.488Z,12.53
2018-11-23T12:09:11.503Z,14.03
2018-11-23T12:11:41.515Z,12.90
2018-11-23T12:14:11.214Z,13.13
2018-11-23T12:16:40.800Z,11.87
2018-11-23T12:19:10.443Z,13.93
2018-11-23T12:21:40.140Z,12.50
2018-11-23T12:24:09.911Z,18.37
2018-11-23T12:26:41.919Z,14.27
2018-11-23T12:29:11.754Z,11.63
2018-11-23T12:31:41.669Z,14.50
2018-11-23T12:34:11.362Z,15.87
2018-11-23T12:36:41.278Z,15.77
2018-11-23T12:39:27.639Z,14.53
2018-11-23T12:41:57.536Z,13.67
2018-11-23T12:44:44.323Z,16.13
2018-11-23T12:47:14.045Z,12.93
2018-11-23T12:49:43.787Z,14.83
2018-11-23T12:52:13.476Z,14.93
2018-11-23T12:54:44.300Z,15.23
2018-11-23T12:57:14.320Z,15.50
2018-11-23T12:59:47.552Z,18.83
2018-11-23T13:02:46.069Z,16.40
2018-11-23T13:05:16.044Z,17.27
2018-11-23T13:07:45.705Z,15.93
2018-11-23T13:10:15.311Z,17.17
2018-11-23T13:12:50.717Z,18.30
2018-11-23T13:15:14.968Z,16.23
2018-11-23T13:17:44.631Z,17.90
2018-11-23T13:20:15.896Z,17.60
2018-11-23T13:22:47.731Z,14.93
2018-11-23T13:25:21.461Z,15.47
2018-11-23T13:27:51.715Z,15.23
2018-11-23T13:30:28.492Z,17.60
2018-11-23T13:32:58.374Z,16.37
2018-11-23T13:35:28.556Z,13.37
2018-11-23T13:40:58.371Z,13.80
2018-11-23T13:43:28.500Z,15.00
2018-11-23T13:45:58.436Z,14.73
2018-11-23T13:48:28.560Z,15.97
2018-11-23T13:50:58.635Z,14.43
2018-11-23T13:53:29.610Z,15.80
2018-11-23T13:56:01.450Z,15.00
2018-11-23T13:58:58.194Z,16.30
2018-11-23T14:01:27.957Z,15.53
2018-11-23T14:07:13.259Z,15.13
2018-11-23T14:09:42.967Z,18.53
2018-11-23T14:12:12.899Z,21.77
2018-11-23T14:14:42.635Z,15.23
2018-11-23T14:17:29.867Z,13.87
2018-11-23T14:20:00.075Z,16.50
2018-11-23T14:22:44.147Z,16.97
2018-11-23T14:25:17.384Z,15.37
2018-11-23T14:27:47.662Z,15.63
2018-11-23T14:30:20.280Z,16.97
2018-11-23T14:32:50.389Z,14.43
2018-11-23T14:35:22.311Z,15.00
2018-11-23T14:37:53.587Z,16.47
2018-11-23T14:40:23.356Z,16.83
2018-11-23T14:42:53.645Z,14.47
2018-11-23T14:45:29.301Z,15.53
2018-11-23T14:48:01.549Z,16.47
2018-11-23T14:50:49.932Z,17.03
2018-11-23T14:53:20.064Z,14.77
2018-11-23T14:55:50.368Z,18.93
2018-11-23T14:58:20.223Z,18.60
2018-11-23T15:00:57.576Z,16.60
2018-11-23T15:03:27.811Z,15.90
2018-11-23T15:05:57.942Z,14.93
2018-11-23T15:08:27.708Z,15.80
2018-11-23T15:10:57.555Z,16.20
2018-11-23T15:13:34.364Z,20.80
2018-11-23T15:16:07.133Z,14.33
2018-11-23T15:18:41.587Z,15.13
2018-11-23T15:21:11.358Z,15.03
2018-11-23T15:23:41.853Z,16.27
2018-11-23T15:26:11.672Z,14.37
2018-11-23T15:28:42.416Z,16.70
2018-11-23T15:31:31.165Z,15.03
2018-11-23T15:34:01.039Z,15.63
2018-11-23T15:36:30.800Z,15.90
2018-11-23T15:39:00.659Z,14.40
2018-11-23T15:41:31.231Z,14.67
2018-11-23T15:44:01.414Z,14.70
2018-11-23T15:46:31.371Z,14.27
2018-11-23T15:49:15.893Z,14.07
2018-11-23T15:51:45.757Z,19.17
2018-11-23T15:54:15.529Z,15.73
2018-11-23T15:56:46.040Z,21.70
2018-11-23T15:59:15.875Z,16.80
2018-11-23T16:01:45.927Z,16.93
2018-11-23T16:04:15.772Z,17.47
2018-11-23T16:06:49.083Z,16.53
2018-11-23T16:09:25.594Z,15.47
2018-11-23T16:11:55.905Z,14.47
2018-11-23T16:14:32.835Z,15.70
2018-11-23T16:17:23.247Z,16.07
2018-11-23T16:19:53.335Z,15.03
2018-11-23T16:22:23.028Z,15.80
2018-11-23T16:24:53.288Z,17.50
2018-11-23T16:27:23.223Z,13.50
2018-11-23T16:29:56.773Z,13.37
2018-11-23T16:32:45.191Z,13.67
2018-11-23T16:35:26.219Z,14.20
2018-11-23T16:37:56.949Z,14.17
2018-11-23T16:40:28.654Z,17.60
2018-11-23T16:43:01.107Z,13.80
2018-11-23T16:45:33.180Z,14.23
2018-11-23T16:48:04.322Z,15.37
2018-11-23T16:50:39.540Z,14.60
2018-11-23T16:53:14.299Z,11.90
2018-11-23T16:55:45.115Z,13.27
2018-11-23T16:58:15.129Z,12.60
2018-11-23T17:00:46.513Z,12.80
2018-11-23T17:03:25.919Z,13.60
2018-11-23T17:05:57.045Z,13.60
2018-11-23T17:08:45.012Z,15.57
2018-11-23T17:11:14.919Z,14.50
2018-11-23T17:13:45.214Z,20.37
2018-11-23T17:16:32.290Z,19.23
2018-11-23T17:19:07.138Z,15.50
2018-11-23T17:21:43.772Z,13.07
2018-11-23T17:24:13.514Z,12.03
2018-11-23T17:26:43.380Z,13.93
2018-11-23T17:29:13.191Z,13.17
2018-11-23T17:31:43.063Z,13.97
2018-11-23T17:34:12.932Z,12.77
2018-11-23T17:36:42.575Z,13.73
2018-11-23T17:39:12.327Z,13.03
2018-11-23T17:41:42.248Z,13.97
2018-11-23T17:44:11.955Z,12.37
2018-11-23T17:46:42.612Z,13.83
2018-11-23T17:49:12.444Z,13.17
2018-11-23T17:51:42.176Z,12.97
2018-11-23T17:54:11.819Z,12.57
2018-11-23T17:56:41.548Z,13.13
2018-11-23T17:59:11.212Z,15.00
2018-11-23T18:01:41.005Z,14.70
2018-11-23T18:04:26.608Z,12.80
2018-11-23T18:06:56.439Z,13.23
2018-11-23T18:09:27.251Z,14.73
2018-11-23T18:11:57.093Z,15.07
2018-11-23T18:14:26.752Z,13.50
2018-11-23T18:16:56.619Z,13.23
2018-11-23T18:19:26.522Z,11.57
2018-11-23T18:21:56.857Z,12.23
2018-11-23T18:24:26.669Z,13.27
2018-11-23T18:26:56.571Z,15.93
2018-11-23T18:29:26.231Z,18.67
2018-11-23T18:31:55.991Z,16.30
2018-11-23T18:34:25.678Z,15.90
2018-11-23T18:36:56.276Z,20.80
2018-11-23T18:39:26.067Z,18.33
2018-11-23T18:41:55.837Z,20.70
2018-11-23T18:44:25.596Z,17.07
2018-11-23T18:46:55.223Z,22.87
2018-11-23T18:49:25.296Z,16.87
2018-11-23T18:51:55.406Z,17.07
2018-11-23T18:54:25.368Z,19.47
2018-11-23T18:56:55.257Z,23.37
2018-11-23T18:59:24.988Z,20.90
2018-11-23T19:01:54.824Z,17.87
2018-11-23T19:04:26.683Z,18.13
2018-11-23T19:06:56.405Z,18.63
2018-11-23T19:09:26.097Z,20.30
2018-11-23T19:11:55.889Z,21.33
2018-11-23T19:14:25.611Z,19.93
2018-11-23T19:16:58.898Z,22.73
2018-11-23T19:19:28.607Z,19.07
2018-11-23T19:21:59.042Z,19.20
2018-11-23T19:24:29.195Z,21.53
2018-11-23T19:27:13.849Z,20.57
2018-11-23T19:29:43.579Z,19.90
2018-11-23T19:32:20.608Z,19.00
2018-11-23T19:34:50.491Z,21.03
2018-11-23T19:37:21.417Z,17.73
2018-11-23T19:39:51.213Z,16.40
2018-11-23T19:42:22.636Z,14.00
2018-11-23T19:44:55.686Z,14.80
2018-11-23T19:47:33.532Z,14.57
2018-11-23T19:50:03.382Z,14.10
2018-11-23T19:52:37.386Z,14.03
2018-11-23T19:55:09.043Z,13.00
2018-11-23T19:57:43.112Z,11.43
2018-11-23T20:00:18.758Z,11.97
2018-11-23T20:02:48.646Z,11.47
2018-11-23T20:05:19.221Z,11.33
2018-11-23T20:07:51.362Z,11.83
2018-11-23T20:10:22.903Z,13.57
2018-11-23T20:13:03.128Z,10.73
2018-11-23T20:15:33.357Z,14.00
2018-11-23T20:18:03.238Z,12.60
2018-11-23T20:20:39.012Z,12.60
2018-11-23T20:23:10.040Z,11.90
2018-11-23T20:25:39.960Z,11.33
2018-11-23T20:28:10.598Z,12.83
2018-11-23T20:30:42.598Z,11.80
2018-11-23T20:33:16.982Z,11.00
2018-11-23T20:35:50.995Z,11.40
2018-11-23T20:38:29.114Z,10.10
2018-11-23T20:41:04.775Z,11.93
2018-11-23T20:43:48.449Z,12.77
2018-11-23T20:46:22.541Z,13.57
2018-11-23T20:48:52.668Z,11.93
2018-11-23T20:51:22.409Z,12.97
2018-11-23T20:53:53.351Z,13.70
2018-11-23T20:56:23.280Z,13.47
2018-11-23T20:58:52.991Z,12.27
2018-11-23T21:01:26.610Z,10.87
2018-11-23T21:03:56.712Z,11.97
2018-11-23T21:06:37.565Z,10.80
2018-11-23T21:09:10.769Z,10.83
2018-11-23T21:11:40.423Z,11.23
2018-11-23T21:14:10.447Z,15.67
2018-11-23T21:16:40.468Z,31.73
2018-11-23T21:19:10.171Z,14.80
2018-11-23T21:21:46.804Z,14.23
2018-11-23T21:24:20.376Z,11.07
2018-11-23T21:27:07.917Z,12.50
2018-11-23T21:29:40.786Z,11.73
2018-11-23T21:32:12.572Z,11.70
2018-11-23T21:34:55.078Z,12.97
2018-11-23T21:37:26.885Z,9.53
2018-11-23T21:39:58.210Z,10.97
2018-11-23T21:42:28.917Z,10.33
2018-11-23T21:44:58.944Z,10.67
2018-11-23T21:47:28.866Z,10.90
2018-11-23T21:49:58.884Z,10.77
2018-11-23T21:52:28.513Z,9.97
2018-11-23T21:55:00.054Z,12.67
2018-11-23T21:57:30.909Z,10.40
2018-11-23T22:00:02.845Z,11.73
2018-11-23T22:02:32.483Z,11.20
2018-11-23T22:05:04.245Z,10.30
2018-11-23T22:07:34.015Z,11.37
2018-11-23T22:10:10.664Z,11.17
2018-11-23T22:12:46.967Z,10.47
2018-11-23T22:15:37.892Z,9.93
2018-11-23T22:18:08.268Z,11.57
2018-11-23T22:20:38.032Z,8.97
2018-11-23T22:23:09.588Z,10.17
2018-11-23T22:26:01.966Z,14.07
2018-11-23T22:28:31.763Z,12.47
2018-11-23T22:31:08.354Z,12.80
2018-11-23T22:33:44.806Z,11.90
2018-11-23T22:36:17.889Z,10.77
2018-11-23T22:38:47.860Z,11.37
2018-11-23T22:41:18.384Z,11.30
2018-11-23T22:43:48.139Z,14.73
2018-11-23T22:46:18.139Z,14.17
2018-11-23T22:48:51.705Z,12.77
2018-11-23T22:51:21.695Z,10.60
2018-11-23T22:54:07.413Z,11.83
2018-11-23T22:56:37.420Z,9.43
2018-11-23T22:59:07.724Z,11.53
2018-11-23T23:01:51.369Z,10.57
2018-11-23T23:04:21.110Z,17.47
2018-11-23T23:06:51.176Z,19.33
2018-11-23T23:09:22.298Z,13.73
2018-11-23T23:11:52.105Z,15.77
2018-11-23T23:14:23.151Z,13.50
2018-11-23T23:16:57.013Z,12.93
2018-11-23T23:19:29.114Z,11.07
2018-11-23T23:22:10.400Z,11.40
2018-11-23T23:24:40.462Z,13.13
2018-11-23T23:27:10.279Z,11.03
2018-11-23T23:29:40.199Z,12.27
2018-11-23T23:32:10.135Z,13.13
2018-11-23T23:34:39.870Z,12.33
2018-11-23T23:37:09.604Z,10.87
2018-11-23T23:39:39.422Z,12.03
2018-11-23T23:42:09.179Z,12.17
2018-11-23T23:44:39.489Z,10.43
2018-11-23T23:47:09.160Z,9.63
2018-11-23T23:49:38.955Z,10.67
2018-11-23T23:52:08.667Z,15.03
2018-11-23T23:54:41.012Z,15.23
2018-11-23T23:57:20.898Z,20.20
2018-11-23T23:59:52.267Z,15.00
